createdAt,value
2016-09-10T00:00:58.267Z,0.00
2016-09-10T00:01:58.753Z,0.00
2016-09-10T00:02:59.272Z,0.00
2016-09-10T00:03:59.777Z,0.00
2016-09-10T00:05:00.291Z,0.00
2016-09-10T00:06:00.957Z,0.00
2016-09-10T00:07:01.324Z,0.00
2016-09-10T00:08:01.990Z,0.00
2016-09-10T00:09:02.497Z,0.00
2016-09-10T00:10:02.863Z,0.00
2016-09-10T00:11:03.531Z,0.00
2016-09-10T00:12:03.903Z,0.00
2016-09-10T00:13:04.408Z,0.00
2016-09-10T00:14:05.072Z,0.00
2016-09-10T00:15:05.446Z,0.00
2016-09-10T00:16:06.262Z,0.00
2016-09-10T00:17:06.799Z,0.00
2016-09-10T00:18:07.127Z,0.00
2016-09-10T00:19:07.650Z,0.00
2016-09-10T00:20:08.044Z,0.00
2016-09-10T00:21:08.523Z,0.00
2016-09-10T00:22:09.068Z,0.00
2016-09-10T00:23:09.554Z,0.00
2016-09-10T00:24:10.210Z,0.00
2016-09-10T00:25:10.729Z,0.00
2016-09-10T00:26:11.246Z,0.00
2016-09-10T00:27:11.611Z,0.00
2016-09-10T00:28:12.127Z,0.00
2016-09-10T00:29:12.686Z,0.00
2016-09-10T00:30:13.160Z,0.00
2016-09-10T00:31:13.680Z,0.00
2016-09-10T00:32:14.199Z,0.00
2016-09-10T00:33:14.716Z,0.00
2016-09-10T00:34:15.234Z,0.00
2016-09-10T00:35:15.749Z,0.00
2016-09-10T00:36:16.261Z,0.00
2016-09-10T00:37:16.788Z,0.00
2016-09-10T00:38:17.296Z,0.00
2016-09-10T00:39:17.800Z,0.00
2016-09-10T00:40:18.477Z,0.00
2016-09-10T00:41:18.835Z,0.00
2016-09-10T00:42:19.347Z,0.00
2016-09-10T00:43:19.855Z,0.00
2016-09-10T00:44:20.380Z,0.00
2016-09-10T00:45:20.991Z,0.00
2016-09-10T00:46:21.429Z,0.00
2016-09-10T00:47:22.965Z,0.00
2016-09-10T00:48:22.425Z,0.00
2016-09-10T00:49:22.939Z,0.00
2016-09-10T00:50:23.454Z,0.00
2016-09-10T00:51:23.971Z,0.00
2016-09-10T00:52:24.493Z,0.00
2016-09-10T00:53:25.005Z,0.00
2016-09-10T00:54:25.548Z,0.00
2016-09-10T00:55:26.030Z,0.00
2016-09-10T00:56:26.566Z,0.00
2016-09-10T00:57:27.254Z,0.00
2016-09-10T00:58:27.600Z,0.00
2016-09-10T00:59:28.243Z,0.00
2016-09-10T01:00:28.661Z,0.00
2016-09-10T01:01:29.115Z,0.00
2016-09-10T01:02:29.788Z,0.00
2016-09-10T01:03:30.149Z,0.00
2016-09-10T01:04:30.803Z,0.00
2016-09-10T01:05:31.200Z,0.00
2016-09-10T01:06:31.689Z,0.00
2016-09-10T01:07:32.217Z,0.00
2016-09-10T01:08:32.722Z,0.00
2016-09-10T01:09:33.242Z,0.00
2016-09-10T01:10:33.754Z,0.00
2016-09-10T01:11:34.274Z,0.00
2016-09-10T01:12:34.784Z,0.00
2016-09-10T01:13:35.328Z,0.00
2016-09-10T01:14:35.833Z,0.00
2016-09-10T01:15:36.513Z,0.00
2016-09-10T01:16:36.920Z,0.00
2016-09-10T01:17:37.365Z,0.00
2016-09-10T01:18:37.871Z,0.00
2016-09-10T01:19:38.386Z,0.00
2016-09-10T01:20:38.895Z,0.00
2016-09-10T01:21:39.722Z,0.00
2016-09-10T01:22:40.087Z,0.00
2016-09-10T01:23:40.460Z,0.00
2016-09-10T01:24:41.103Z,0.00
2016-09-10T01:25:41.476Z,0.00
2016-09-10T01:26:41.986Z,0.00
2016-09-10T01:27:42.499Z,0.00
2016-09-10T01:28:43.020Z,0.00
2016-09-10T01:29:43.526Z,0.00
2016-09-10T01:30:44.343Z,0.00
2016-09-10T01:31:44.564Z,0.00
2016-09-10T01:32:45.087Z,0.00
2016-09-10T01:33:45.583Z,0.00
2016-09-10T01:34:46.094Z,0.00
2016-09-10T01:35:46.608Z,0.00
2016-09-10T01:36:47.122Z,0.00
2016-09-10T01:37:47.637Z,0.00
2016-09-10T01:38:48.466Z,0.00
2016-09-10T01:39:48.823Z,0.00
2016-09-10T01:40:49.184Z,0.00
2016-09-10T01:41:49.844Z,0.00
2016-09-10T01:42:50.209Z,0.00
2016-09-10T01:43:50.759Z,0.00
2016-09-10T01:44:51.244Z,0.00
2016-09-10T01:45:51.761Z,0.00
2016-09-10T01:46:52.438Z,0.00
2016-09-10T01:47:52.794Z,0.00
2016-09-10T01:48:53.320Z,0.00
2016-09-10T01:49:53.816Z,0.00
2016-09-10T01:50:54.333Z,0.00
2016-09-10T01:51:54.849Z,0.00
2016-09-10T01:52:55.378Z,0.00
2016-09-10T01:53:55.873Z,0.00
2016-09-10T01:54:56.398Z,0.00
2016-09-10T01:55:57.349Z,0.00
2016-09-10T01:56:57.585Z,0.00
2016-09-10T01:57:58.079Z,0.00
2016-09-10T01:58:58.596Z,0.00
2016-09-10T01:59:58.958Z,0.00
2016-09-10T02:00:59.468Z,0.00
2016-09-10T02:01:59.979Z,0.00
2016-09-10T02:03:00.515Z,0.00
2016-09-10T02:04:01.167Z,0.00
2016-09-10T02:05:01.537Z,0.00
2016-09-10T02:06:02.123Z,0.00
2016-09-10T02:07:02.551Z,0.00
2016-09-10T02:08:03.066Z,0.00
2016-09-10T02:09:03.735Z,0.00
2016-09-10T02:10:04.316Z,0.00
2016-09-10T02:11:04.618Z,0.00
2016-09-10T02:12:05.122Z,0.00
2016-09-10T02:13:05.784Z,0.00
2016-09-10T02:14:06.149Z,0.00
2016-09-10T02:15:06.673Z,0.00
2016-09-10T02:16:07.202Z,0.00
2016-09-10T02:17:07.742Z,0.00
2016-09-10T02:18:08.233Z,0.00
2016-09-10T02:19:08.910Z,0.00
2016-09-10T02:20:09.560Z,0.00
2016-09-10T02:21:10.075Z,0.00
2016-09-10T02:22:10.303Z,0.00
2016-09-10T02:23:11.009Z,0.00
2016-09-10T02:24:11.330Z,0.00
2016-09-10T02:25:11.835Z,0.00
2016-09-10T02:26:12.357Z,0.00
2016-09-10T02:27:13.009Z,0.00
2016-09-10T02:28:13.530Z,0.00
2016-09-10T02:29:13.899Z,0.00
2016-09-10T02:30:14.560Z,0.00
2016-09-10T02:31:14.927Z,0.00
2016-09-10T02:32:15.443Z,0.00
2016-09-10T02:33:15.981Z,0.00
2016-09-10T02:34:16.466Z,0.00
2016-09-10T02:35:16.983Z,0.00
2016-09-10T02:36:17.501Z,0.00
2016-09-10T02:37:18.023Z,0.00
2016-09-10T02:38:18.836Z,0.00
2016-09-10T02:39:19.209Z,0.00
2016-09-10T02:40:19.702Z,0.00
2016-09-10T02:41:20.067Z,0.00
2016-09-10T02:42:20.585Z,0.00
2016-09-10T02:43:21.250Z,0.00
2016-09-10T02:44:21.616Z,0.00
2016-09-10T02:45:22.126Z,0.00
2016-09-10T02:46:22.635Z,0.00
2016-09-10T02:47:23.154Z,0.00
2016-09-10T02:48:23.665Z,0.00
2016-09-10T02:49:24.179Z,0.00
2016-09-10T02:50:24.699Z,0.00
2016-09-10T02:51:28.214Z,0.00
2016-09-10T02:52:25.725Z,0.00
2016-09-10T02:53:26.238Z,0.00
2016-09-10T02:54:26.749Z,0.00
2016-09-10T02:55:27.265Z,0.00
2016-09-10T02:56:27.804Z,0.00
2016-09-10T02:57:28.300Z,0.00
2016-09-10T02:58:28.966Z,0.00
2016-09-10T02:59:29.350Z,0.00
2016-09-10T03:00:29.858Z,0.00
2016-09-10T03:01:30.361Z,0.00
2016-09-10T03:02:31.045Z,0.00
2016-09-10T03:03:31.397Z,0.00
2016-09-10T03:04:31.921Z,0.00
2016-09-10T03:05:32.420Z,0.00
2016-09-10T03:06:32.930Z,0.00
2016-09-10T03:07:33.448Z,0.00
2016-09-10T03:08:33.963Z,0.00
2016-09-10T03:09:34.475Z,0.00
2016-09-10T03:10:35.015Z,0.00
2016-09-10T03:11:35.690Z,0.00
2016-09-10T03:12:36.022Z,0.00
2016-09-10T03:13:36.699Z,0.00
2016-09-10T03:14:37.057Z,0.00
2016-09-10T03:15:38.632Z,0.00
2016-09-10T03:16:38.082Z,0.00
2016-09-10T03:17:38.597Z,0.00
2016-09-10T03:18:39.120Z,0.00
2016-09-10T03:19:39.780Z,0.00
2016-09-10T03:20:40.142Z,0.00
2016-09-10T03:21:40.659Z,0.00
2016-09-10T03:22:41.314Z,0.00
2016-09-10T03:23:41.676Z,0.00
2016-09-10T03:24:42.222Z,0.00
2016-09-10T03:25:42.710Z,0.00
2016-09-10T03:26:43.214Z,0.00
2016-09-10T03:27:43.736Z,0.00
2016-09-10T03:28:44.256Z,0.00
2016-09-10T03:29:44.767Z,0.00
2016-09-10T03:30:45.732Z,0.00
2016-09-10T03:31:45.803Z,0.00
2016-09-10T03:32:46.313Z,0.00
2016-09-10T03:33:46.834Z,0.00
2016-09-10T03:34:47.352Z,0.00
2016-09-10T03:35:48.770Z,0.00
2016-09-10T03:36:48.535Z,0.00
2016-09-10T03:37:48.895Z,0.00
2016-09-10T03:38:49.407Z,0.00
2016-09-10T03:39:50.081Z,0.00
2016-09-10T03:40:50.431Z,0.00
2016-09-10T03:41:51.102Z,0.00
2016-09-10T03:42:51.466Z,0.00
2016-09-10T03:43:51.981Z,0.00
2016-09-10T03:44:52.520Z,0.00
2016-09-10T03:45:53.005Z,0.00
2016-09-10T03:46:53.523Z,0.00
2016-09-10T03:47:54.187Z,0.00
2016-09-10T03:48:54.715Z,0.00
2016-09-10T03:49:55.225Z,0.00
2016-09-10T03:50:55.581Z,0.00
2016-09-10T03:51:56.090Z,0.00
2016-09-10T03:52:56.610Z,0.00
2016-09-10T03:53:57.121Z,0.00
2016-09-10T03:54:57.659Z,0.00
2016-09-10T03:55:58.151Z,0.00
2016-09-10T03:56:58.815Z,0.00
2016-09-10T03:57:59.182Z,0.00
2016-09-10T03:58:59.704Z,0.00
2016-09-10T04:00:00.257Z,0.00
2016-09-10T04:01:00.753Z,0.00
2016-09-10T04:02:01.359Z,0.00
2016-09-10T04:03:01.857Z,0.00
2016-09-10T04:04:02.270Z,0.00
2016-09-10T04:05:02.856Z,0.00
2016-09-10T04:06:03.371Z,0.00
2016-09-10T04:07:03.808Z,0.00
2016-09-10T04:08:04.332Z,0.00
2016-09-10T04:09:04.994Z,0.00
2016-09-10T04:10:05.371Z,0.00
2016-09-10T04:11:05.888Z,0.00
2016-09-10T04:12:06.402Z,0.00
2016-09-10T04:13:07.067Z,0.00
2016-09-10T04:14:07.469Z,0.00
2016-09-10T04:15:07.950Z,0.00
2016-09-10T04:16:08.458Z,0.00
2016-09-10T04:17:08.975Z,0.00
2016-09-10T04:18:09.623Z,0.00
2016-09-10T04:19:10.295Z,0.00
2016-09-10T04:20:10.586Z,0.00
2016-09-10T04:21:11.059Z,0.00
2016-09-10T04:22:11.625Z,0.00
2016-09-10T04:23:12.209Z,0.00
2016-09-10T04:24:12.598Z,0.00
2016-09-10T04:25:13.091Z,0.00
2016-09-10T04:26:13.601Z,0.00
2016-09-10T04:27:14.115Z,0.00
2016-09-10T04:28:14.626Z,0.00
2016-09-10T04:29:15.157Z,0.00
2016-09-10T04:30:16.432Z,0.00
2016-09-10T04:31:16.184Z,0.00
2016-09-10T04:32:16.703Z,0.00
2016-09-10T04:33:17.212Z,0.00
2016-09-10T04:34:17.863Z,0.00
2016-09-10T04:35:18.243Z,0.00
2016-09-10T04:36:18.902Z,0.00
2016-09-10T04:37:19.264Z,0.00
2016-09-10T04:38:19.778Z,0.00
2016-09-10T04:39:20.446Z,0.00
2016-09-10T04:40:20.814Z,0.00
2016-09-10T04:41:21.471Z,0.00
2016-09-10T04:42:21.831Z,0.00
2016-09-10T04:43:22.348Z,0.00
2016-09-10T04:44:22.907Z,0.00
2016-09-10T04:45:23.373Z,0.00
2016-09-10T04:46:23.899Z,0.00
2016-09-10T04:47:24.414Z,0.00
2016-09-10T04:48:24.936Z,0.00
2016-09-10T04:49:25.456Z,0.00
2016-09-10T04:50:26.114Z,0.00
2016-09-10T04:51:26.496Z,0.00
2016-09-10T04:52:26.994Z,0.00
2016-09-10T04:53:27.658Z,0.00
2016-09-10T04:54:28.033Z,0.00
2016-09-10T04:55:28.540Z,0.00
2016-09-10T04:56:29.050Z,0.00
2016-09-10T04:57:29.575Z,0.00
2016-09-10T04:58:30.228Z,0.00
2016-09-10T04:59:30.779Z,0.00
2016-09-10T05:00:31.110Z,0.00
2016-09-10T05:01:31.774Z,0.00
2016-09-10T05:02:32.141Z,0.00
2016-09-10T05:03:32.648Z,0.00
2016-09-10T05:04:33.176Z,0.00
2016-09-10T05:05:33.690Z,1.00
2016-09-10T05:06:34.406Z,1.00
2016-09-10T05:07:34.862Z,1.00
2016-09-10T05:08:35.231Z,1.00
2016-09-10T05:09:35.744Z,1.00
2016-09-10T05:10:36.253Z,2.00
2016-09-10T05:11:36.773Z,2.00
2016-09-10T05:12:37.285Z,2.00
2016-09-10T05:13:37.802Z,2.00
2016-09-10T05:14:38.616Z,2.00
2016-09-10T05:15:40.630Z,2.00
2016-09-10T05:16:39.350Z,2.00
2016-09-10T05:17:40.492Z,2.00
2016-09-10T05:18:40.370Z,2.00
2016-09-10T05:19:41.328Z,3.00
2016-09-10T05:20:41.591Z,3.00
2016-09-10T05:21:42.065Z,3.00
2016-09-10T05:22:42.426Z,3.00
2016-09-10T05:23:42.966Z,3.00
2016-09-10T05:24:43.477Z,3.00
2016-09-10T05:25:44.133Z,3.00
2016-09-10T05:26:44.662Z,4.00
2016-09-10T05:27:45.018Z,4.00
2016-09-10T05:28:45.531Z,4.00
2016-09-10T05:29:46.203Z,4.00
2016-09-10T05:30:46.571Z,4.00
2016-09-10T05:31:47.229Z,4.00
2016-09-10T05:32:47.809Z,4.00
2016-09-10T05:33:48.107Z,5.00
2016-09-10T05:34:48.637Z,5.00
2016-09-10T05:35:49.288Z,5.00
2016-09-10T05:36:49.672Z,5.00
2016-09-10T05:37:50.166Z,5.00
2016-09-10T05:38:50.682Z,6.00
2016-09-10T05:39:51.197Z,6.00
2016-09-10T05:40:51.706Z,6.00
2016-09-10T05:41:52.224Z,6.00
2016-09-10T05:42:52.734Z,6.00
2016-09-10T05:43:53.250Z,6.00
2016-09-10T05:44:53.919Z,7.00
2016-09-10T05:45:56.994Z,7.00
2016-09-10T05:46:54.820Z,7.00
2016-09-10T05:47:55.308Z,7.00
2016-09-10T05:48:55.822Z,7.00
2016-09-10T05:49:56.338Z,7.00
2016-09-10T05:50:56.853Z,7.00
2016-09-10T05:51:57.366Z,7.00
2016-09-10T05:52:57.882Z,8.00
2016-09-10T05:53:58.401Z,8.00
2016-09-10T05:54:59.066Z,8.00
2016-09-10T05:55:59.582Z,8.00
2016-09-10T05:56:59.942Z,8.00
2016-09-10T05:58:00.473Z,8.00
2016-09-10T05:59:01.007Z,9.00
2016-09-10T06:00:01.660Z,9.00
2016-09-10T06:01:02.081Z,9.00
2016-09-10T06:02:02.693Z,9.00
2016-09-10T06:03:03.057Z,9.00
2016-09-10T06:04:04.626Z,9.00
2016-09-10T06:05:04.099Z,10.00
2016-09-10T06:06:04.808Z,10.00
2016-09-10T06:07:05.106Z,10.00
2016-09-10T06:08:05.622Z,11.00
2016-09-10T06:09:06.282Z,11.00
2016-09-10T06:10:07.401Z,12.00
2016-09-10T06:11:07.171Z,14.00
2016-09-10T06:12:07.681Z,14.00
2016-09-10T06:13:08.195Z,15.00
2016-09-10T06:14:08.704Z,15.00
2016-09-10T06:15:09.217Z,15.00
2016-09-10T06:16:09.729Z,15.00
2016-09-10T06:17:10.396Z,16.00
2016-09-10T06:18:10.764Z,15.00
2016-09-10T06:19:11.305Z,16.00
2016-09-10T06:20:11.795Z,16.00
2016-09-10T06:21:12.462Z,16.00
2016-09-10T06:22:12.827Z,18.00
2016-09-10T06:23:13.334Z,16.00
2016-09-10T06:24:13.850Z,14.00
2016-09-10T06:25:14.517Z,14.00
2016-09-10T06:26:14.901Z,15.00
2016-09-10T06:27:15.397Z,15.00
2016-09-10T06:28:15.925Z,15.00
2016-09-10T06:29:16.432Z,15.00
2016-09-10T06:30:17.264Z,15.00
2016-09-10T06:31:17.607Z,16.00
2016-09-10T06:32:17.972Z,16.00
2016-09-10T06:33:18.479Z,17.00
2016-09-10T06:34:19.144Z,20.00
2016-09-10T06:35:19.670Z,20.00
2016-09-10T06:36:20.209Z,24.00
2016-09-10T06:37:20.547Z,24.00
2016-09-10T06:38:21.243Z,25.00
2016-09-10T06:39:21.582Z,26.00
2016-09-10T06:40:22.098Z,27.00
2016-09-10T06:41:22.611Z,27.00
2016-09-10T06:42:23.139Z,27.00
2016-09-10T06:43:23.638Z,28.00
2016-09-10T06:44:24.162Z,28.00
2016-09-10T06:45:24.674Z,28.00
2016-09-10T06:46:25.222Z,29.00
2016-09-10T06:47:25.714Z,28.00
2016-09-10T06:48:26.370Z,29.00
2016-09-10T06:49:26.729Z,29.00
2016-09-10T06:50:27.694Z,29.00
2016-09-10T06:51:27.758Z,30.00
2016-09-10T06:52:28.428Z,30.00
2016-09-10T06:53:28.939Z,30.00
2016-09-10T06:54:29.311Z,32.00
2016-09-10T06:55:29.829Z,32.00
2016-09-10T06:56:30.352Z,34.00
2016-09-10T06:57:30.900Z,34.00
2016-09-10T06:58:31.374Z,34.00
2016-09-10T06:59:31.891Z,35.00
2016-09-10T07:00:32.546Z,35.00
2016-09-10T07:01:32.910Z,36.00
2016-09-10T07:02:33.431Z,36.00
2016-09-10T07:03:33.938Z,36.00
2016-09-10T07:04:34.457Z,37.00
2016-09-10T07:05:35.123Z,37.00
2016-09-10T07:06:35.643Z,38.00
2016-09-10T07:07:36.010Z,38.00
2016-09-10T07:08:36.574Z,39.00
2016-09-10T07:09:37.038Z,40.00
2016-09-10T07:10:37.572Z,40.00
2016-09-10T07:11:38.220Z,40.00
2016-09-10T07:12:38.589Z,40.00
2016-09-10T07:13:39.110Z,41.00
2016-09-10T07:14:39.625Z,41.00
2016-09-10T07:15:40.144Z,41.00
2016-09-10T07:16:40.656Z,42.00
2016-09-10T07:17:41.165Z,42.00
2016-09-10T07:18:41.831Z,43.00
2016-09-10T07:19:42.222Z,43.00
2016-09-10T07:20:42.717Z,43.00
2016-09-10T07:21:43.231Z,44.00
2016-09-10T07:22:43.739Z,44.00
2016-09-10T07:23:44.255Z,44.00
2016-09-10T07:24:44.764Z,45.00
2016-09-10T07:25:45.278Z,46.00
2016-09-10T07:26:45.799Z,46.00
2016-09-10T07:27:46.303Z,47.00
2016-09-10T07:28:46.850Z,47.00
2016-09-10T07:29:47.329Z,48.00
2016-09-10T07:30:47.862Z,48.00
2016-09-10T07:31:48.357Z,49.00
2016-09-10T07:32:48.871Z,49.00
2016-09-10T07:33:49.539Z,50.00
2016-09-10T07:34:49.902Z,50.00
2016-09-10T07:35:50.567Z,50.00
2016-09-10T07:36:50.924Z,51.00
2016-09-10T07:37:51.440Z,52.00
2016-09-10T07:38:51.950Z,52.00
2016-09-10T07:39:52.623Z,53.00
2016-09-10T07:40:54.782Z,53.00
2016-09-10T07:41:53.510Z,54.00
2016-09-10T07:42:54.017Z,54.00
2016-09-10T07:43:54.532Z,55.00
2016-09-10T07:44:55.189Z,55.00
2016-09-10T07:45:55.703Z,55.00
2016-09-10T07:46:57.749Z,56.00
2016-09-10T07:47:56.737Z,56.00
2016-09-10T07:48:57.111Z,56.00
2016-09-10T07:49:57.622Z,56.00
2016-09-10T07:50:58.296Z,57.00
2016-09-10T07:51:58.653Z,57.00
2016-09-10T07:52:59.313Z,58.00
2016-09-10T07:53:59.679Z,58.00
2016-09-10T07:55:00.245Z,59.00
2016-09-10T07:56:00.698Z,60.00
2016-09-10T07:57:01.212Z,60.00
2016-09-10T07:58:01.731Z,60.00
2016-09-10T07:59:02.267Z,61.00
2016-09-10T08:00:02.760Z,61.00
2016-09-10T08:01:04.017Z,62.00
2016-09-10T08:02:03.937Z,62.00
2016-09-10T08:03:04.307Z,63.00
2016-09-10T08:04:04.811Z,63.00
2016-09-10T08:05:05.348Z,64.00
2016-09-10T08:06:05.846Z,64.00
2016-09-10T08:07:06.398Z,64.00
2016-09-10T08:08:06.869Z,65.00
2016-09-10T08:09:07.391Z,65.00
2016-09-10T08:10:07.904Z,65.00
2016-09-10T08:11:10.099Z,66.00
2016-09-10T08:12:08.934Z,66.00
2016-09-10T08:13:09.436Z,67.00
2016-09-10T08:14:10.123Z,67.00
2016-09-10T08:15:10.915Z,68.00
2016-09-10T08:16:11.131Z,68.00
2016-09-10T08:17:11.494Z,68.00
2016-09-10T08:18:12.147Z,69.00
2016-09-10T08:19:12.518Z,69.00
2016-09-10T08:20:13.027Z,69.00
2016-09-10T08:21:13.560Z,69.00
2016-09-10T08:22:14.210Z,69.00
2016-09-10T08:23:14.663Z,70.00
2016-09-10T08:24:15.087Z,70.00
2016-09-10T08:25:15.751Z,70.00
2016-09-10T08:26:16.270Z,71.00
2016-09-10T08:27:16.690Z,72.00
2016-09-10T08:28:17.175Z,73.00
2016-09-10T08:29:17.682Z,73.00
2016-09-10T08:30:18.178Z,74.00
2016-09-10T08:31:18.688Z,74.00
2016-09-10T08:32:19.203Z,75.00
2016-09-10T08:33:19.725Z,76.00
2016-09-10T08:34:20.235Z,77.00
2016-09-10T08:35:20.745Z,77.00
2016-09-10T08:36:21.265Z,77.00
2016-09-10T08:37:21.766Z,78.00
2016-09-10T08:38:22.282Z,78.00
2016-09-10T08:39:22.821Z,78.00
2016-09-10T08:40:23.320Z,79.00
2016-09-10T08:41:23.828Z,80.00
2016-09-10T08:42:24.350Z,80.00
2016-09-10T08:43:24.865Z,81.00
2016-09-10T08:44:25.521Z,82.00
2016-09-10T08:45:26.039Z,82.00
2016-09-10T08:46:26.404Z,83.00
2016-09-10T08:47:27.068Z,83.00
2016-09-10T08:48:27.428Z,82.00
2016-09-10T08:49:27.952Z,83.00
2016-09-10T08:50:28.620Z,82.00
2016-09-10T08:51:29.274Z,82.00
2016-09-10T08:52:29.637Z,84.00
2016-09-10T08:53:30.009Z,85.00
2016-09-10T08:54:30.777Z,85.00
2016-09-10T08:55:31.158Z,84.00
2016-09-10T08:56:31.540Z,85.00
2016-09-10T08:57:32.256Z,86.00
2016-09-10T08:58:32.572Z,87.00
2016-09-10T08:59:33.408Z,87.00
2016-09-10T09:00:33.753Z,88.00
2016-09-10T09:01:34.264Z,88.00
2016-09-10T09:02:34.640Z,89.00
2016-09-10T09:03:35.161Z,89.00
2016-09-10T09:04:35.983Z,89.00
2016-09-10T09:05:36.203Z,90.00
2016-09-10T09:06:36.709Z,90.00
2016-09-10T09:07:37.225Z,91.00
2016-09-10T09:08:37.746Z,91.00
2016-09-10T09:09:38.264Z,91.00
2016-09-10T09:10:38.780Z,91.00
2016-09-10T09:11:39.292Z,92.00
2016-09-10T09:12:40.100Z,91.00
2016-09-10T09:13:40.312Z,92.00
2016-09-10T09:14:41.012Z,93.00
2016-09-10T09:15:41.356Z,92.00
2016-09-10T09:16:41.855Z,93.00
2016-09-10T09:17:42.675Z,93.00
2016-09-10T09:18:42.905Z,93.00
2016-09-10T09:19:44.447Z,93.00
2016-09-10T09:20:44.063Z,93.00
2016-09-10T09:21:44.428Z,93.00
2016-09-10T09:22:44.945Z,94.00
2016-09-10T09:23:45.459Z,94.00
2016-09-10T09:24:45.971Z,94.00
2016-09-10T09:25:46.636Z,94.00
2016-09-10T09:26:46.998Z,94.00
2016-09-10T09:27:47.521Z,94.00
2016-09-10T09:28:48.034Z,94.00
2016-09-10T09:29:48.539Z,95.00
2016-09-10T09:30:49.056Z,96.00
2016-09-10T09:31:49.724Z,96.00
2016-09-10T09:32:50.088Z,96.00
2016-09-10T09:33:50.620Z,97.00
2016-09-10T09:34:51.271Z,97.00
2016-09-10T09:35:51.643Z,98.00
2016-09-10T09:36:52.152Z,98.00
2016-09-10T09:37:52.675Z,98.00
2016-09-10T09:38:53.190Z,99.00
2016-09-10T09:39:53.709Z,99.00
2016-09-10T09:40:54.227Z,99.00
2016-09-10T09:41:54.735Z,99.00
2016-09-10T09:42:55.970Z,99.00
2016-09-10T09:43:55.941Z,99.00
2016-09-10T09:44:56.290Z,99.00
2016-09-10T09:45:56.833Z,99.00
2016-09-10T09:46:57.461Z,99.00
2016-09-10T09:47:57.835Z,99.00
2016-09-10T09:48:58.348Z,99.00
2016-09-10T09:49:58.855Z,99.00
2016-09-10T09:50:59.367Z,99.00
2016-09-10T09:51:59.884Z,99.00
2016-09-10T09:53:00.393Z,99.00
2016-09-10T09:54:00.915Z,99.00
2016-09-10T09:55:01.417Z,99.00
2016-09-10T09:56:02.291Z,99.00
2016-09-10T09:57:02.444Z,99.00
2016-09-10T09:58:02.981Z,99.00
2016-09-10T09:59:03.479Z,99.00
2016-09-10T10:00:04.134Z,99.00
2016-09-10T10:01:04.669Z,99.00
2016-09-10T10:02:05.017Z,99.00
2016-09-10T10:03:05.719Z,99.00
2016-09-10T10:04:06.053Z,99.00
2016-09-10T10:05:07.018Z,99.00
2016-09-10T10:06:07.374Z,99.00
2016-09-10T10:07:07.587Z,99.00
2016-09-10T10:08:08.267Z,99.00
2016-09-10T10:09:08.771Z,99.00
2016-09-10T10:10:09.138Z,99.00
2016-09-10T10:11:09.646Z,99.00
2016-09-10T10:12:10.188Z,99.00
2016-09-10T10:13:10.685Z,99.00
2016-09-10T10:14:11.370Z,99.00
2016-09-10T10:15:12.166Z,99.00
2016-09-10T10:16:12.978Z,99.00
2016-09-10T10:17:12.743Z,99.00
2016-09-10T10:18:13.705Z,99.00
2016-09-10T10:19:13.767Z,99.00
2016-09-10T10:20:14.586Z,99.00
2016-09-10T10:21:14.803Z,99.00
2016-09-10T10:22:15.311Z,99.00
2016-09-10T10:23:15.824Z,99.00
2016-09-10T10:24:16.345Z,99.00
2016-09-10T10:25:17.151Z,99.00
2016-09-10T10:26:17.389Z,99.00
2016-09-10T10:27:17.884Z,99.00
2016-09-10T10:28:18.399Z,99.00
2016-09-10T10:29:18.909Z,99.00
2016-09-10T10:30:19.434Z,99.00
2016-09-10T10:31:19.948Z,99.00
2016-09-10T10:32:20.604Z,99.00
2016-09-10T10:33:21.120Z,99.00
2016-09-10T10:34:21.485Z,99.00
2016-09-10T10:35:22.003Z,99.00
2016-09-10T10:36:22.674Z,99.00
2016-09-10T10:37:23.033Z,99.00
2016-09-10T10:38:23.552Z,99.00
2016-09-10T10:39:24.063Z,99.00
2016-09-10T10:40:24.572Z,99.00
2016-09-10T10:41:25.090Z,99.00
2016-09-10T10:42:25.601Z,99.00
2016-09-10T10:43:26.119Z,99.00
2016-09-10T10:44:26.629Z,99.00
2016-09-10T10:45:27.292Z,99.00
2016-09-10T10:46:27.813Z,99.00
2016-09-10T10:47:28.167Z,99.00
2016-09-10T10:48:28.683Z,99.00
2016-09-10T10:49:29.204Z,99.00
2016-09-10T10:50:30.022Z,99.00
2016-09-10T10:51:30.240Z,99.00
2016-09-10T10:52:30.776Z,99.00
2016-09-10T10:53:31.275Z,99.00
2016-09-10T10:54:31.790Z,99.00
2016-09-10T10:55:32.607Z,99.00
2016-09-10T10:56:32.971Z,99.00
2016-09-10T10:57:33.331Z,99.00
2016-09-10T10:58:33.847Z,99.00
2016-09-10T10:59:34.356Z,99.00
2016-09-10T11:00:34.888Z,99.00
2016-09-10T11:01:35.379Z,99.00
2016-09-10T11:02:36.046Z,99.00
2016-09-10T11:03:36.583Z,99.00
2016-09-10T11:04:37.076Z,99.00
2016-09-10T11:05:37.605Z,99.00
2016-09-10T11:06:37.963Z,99.00
2016-09-10T11:07:38.485Z,99.00
2016-09-10T11:08:38.999Z,99.00
2016-09-10T11:09:39.500Z,99.00
2016-09-10T11:10:40.016Z,99.00
2016-09-10T11:11:40.686Z,99.00
2016-09-10T11:12:41.054Z,99.00
2016-09-10T11:13:41.562Z,99.00
2016-09-10T11:14:42.068Z,99.00
2016-09-10T11:15:42.583Z,99.00
2016-09-10T11:16:43.250Z,99.00
2016-09-10T11:17:43.784Z,99.00
2016-09-10T11:18:44.134Z,99.00
2016-09-10T11:19:44.644Z,99.00
2016-09-10T11:20:45.163Z,99.00
2016-09-10T11:21:46.016Z,99.00
2016-09-10T11:22:46.333Z,99.00
2016-09-10T11:23:46.696Z,99.00
2016-09-10T11:24:47.365Z,99.00
2016-09-10T11:25:47.896Z,99.00
2016-09-10T11:26:48.281Z,99.00
2016-09-10T11:27:48.779Z,99.00
2016-09-10T11:28:49.345Z,99.00
2016-09-10T11:29:49.823Z,99.00
2016-09-10T11:30:50.458Z,99.00
2016-09-10T11:31:50.976Z,99.00
2016-09-10T11:32:51.636Z,99.00
2016-09-10T11:33:51.995Z,99.00
2016-09-10T11:34:52.367Z,99.00
2016-09-10T11:35:52.913Z,99.00
2016-09-10T11:36:53.410Z,99.00
2016-09-10T11:37:54.064Z,99.00
2016-09-10T11:38:54.877Z,99.00
2016-09-10T11:39:54.935Z,99.00
2016-09-10T11:40:55.455Z,99.00
2016-09-10T11:41:55.983Z,99.00
2016-09-10T11:42:56.484Z,99.00
2016-09-10T11:43:57.162Z,99.00
2016-09-10T11:44:57.518Z,99.00
2016-09-10T11:45:58.032Z,99.00
2016-09-10T11:46:58.698Z,99.00
2016-09-10T11:47:59.078Z,99.00
2016-09-10T11:48:59.597Z,99.00
2016-09-10T11:50:00.241Z,99.00
2016-09-10T11:51:00.755Z,99.00
2016-09-10T11:52:01.116Z,99.00
2016-09-10T11:53:02.347Z,99.00
2016-09-10T11:54:02.151Z,99.00
2016-09-10T11:55:02.911Z,99.00
2016-09-10T11:56:03.365Z,99.00
2016-09-10T11:57:03.686Z,99.00
2016-09-10T11:58:04.205Z,99.00
2016-09-10T11:59:04.716Z,99.00
2016-09-10T12:00:05.384Z,99.00
2016-09-10T12:01:05.904Z,99.00
2016-09-10T12:02:06.257Z,99.00
2016-09-10T12:03:06.955Z,99.00
2016-09-10T12:04:07.290Z,99.00
2016-09-10T12:05:07.960Z,99.00
2016-09-10T12:06:08.335Z,99.00
2016-09-10T12:07:08.842Z,99.00
2016-09-10T12:08:09.361Z,99.00
2016-09-10T12:09:09.877Z,99.00
2016-09-10T12:10:11.443Z,99.00
2016-09-10T12:11:10.907Z,99.00
2016-09-10T12:12:11.570Z,99.00
2016-09-10T12:13:12.083Z,99.00
2016-09-10T12:14:12.445Z,99.00
2016-09-10T12:15:12.971Z,99.00
2016-09-10T12:16:13.476Z,99.00
2016-09-10T12:17:13.988Z,99.00
2016-09-10T12:18:14.984Z,99.00
2016-09-10T12:19:15.041Z,99.00
2016-09-10T12:20:15.536Z,99.00
2016-09-10T12:21:16.050Z,99.00
2016-09-10T12:22:16.568Z,99.00
2016-09-10T12:23:17.261Z,99.00
2016-09-10T12:24:17.900Z,99.00
2016-09-10T12:25:18.270Z,99.00
2016-09-10T12:26:18.619Z,99.00
2016-09-10T12:27:19.282Z,99.00
2016-09-10T12:28:19.649Z,99.00
2016-09-10T12:29:20.162Z,99.00
2016-09-10T12:30:20.834Z,99.00
2016-09-10T12:31:21.259Z,99.00
2016-09-10T12:32:21.715Z,99.00
2016-09-10T12:33:22.216Z,99.00
2016-09-10T12:34:22.897Z,99.00
2016-09-10T12:35:23.396Z,99.00
2016-09-10T12:36:23.744Z,99.00
2016-09-10T12:37:24.408Z,99.00
2016-09-10T12:38:24.778Z,99.00
2016-09-10T12:39:25.345Z,99.00
2016-09-10T12:40:25.814Z,99.00
2016-09-10T12:41:26.332Z,99.00
2016-09-10T12:42:26.846Z,99.00
2016-09-10T12:43:27.507Z,99.00
2016-09-10T12:44:27.870Z,99.00
2016-09-10T12:45:28.388Z,99.00
2016-09-10T12:46:28.897Z,99.00
2016-09-10T12:47:29.414Z,99.00
2016-09-10T12:48:29.935Z,99.00
2016-09-10T12:49:30.440Z,98.00
2016-09-10T12:50:31.112Z,97.00
2016-09-10T12:51:31.491Z,96.00
2016-09-10T12:52:32.121Z,95.00
2016-09-10T12:53:32.499Z,96.00
2016-09-10T12:54:33.034Z,97.00
2016-09-10T12:55:33.562Z,97.00
2016-09-10T12:56:34.047Z,97.00
2016-09-10T12:57:34.565Z,96.00
2016-09-10T12:58:35.080Z,97.00
2016-09-10T12:59:35.899Z,96.00
2016-09-10T13:00:36.107Z,97.00
2016-09-10T13:01:36.638Z,97.00
2016-09-10T13:02:37.151Z,94.00
2016-09-10T13:03:37.799Z,96.00
2016-09-10T13:04:38.464Z,96.00
2016-09-10T13:05:40.328Z,96.00
2016-09-10T13:06:39.186Z,94.00
2016-09-10T13:07:39.757Z,96.00
2016-09-10T13:08:40.389Z,95.00
2016-09-10T13:09:40.766Z,97.00
2016-09-10T13:10:41.247Z,97.00
2016-09-10T13:11:41.764Z,96.00